PWSweather.com
Personal Weather Stations
Station Observations
WD4JKH
Forsyth, GA 31029

Forsyth, GA 31029

Lat: 33.033225, Lon: -83.927995

Elevation: 709

Station Type: Davis Vantage VUE

High Low Average
Temperature 74.8°F23.8°C 65.7°F18.7°C 70.1°F21.2°C
Dew Point 70.3°F21.3°C 64.4°F18.0°C 67.4°F19.7°C
Winds 9.4 mph 15.1 kmh 1.0 mph 1.6 kmh 4.0 mph ENE6.4 kmh ENE
Wind Gusts 17.0 mph27.4 kmh 4.0 mph6.4 kmh 10.0 mph16.1 kmh
Humidity 98% 82% 91%
Pressure 30.10 in1019.3 mb 30.01 in1016.3 mb -
Precipitation 0.01 in0.3 mm - -
Hour Temp Dew Point Humidity Winds Wind Gusts Pressure Precip Precip Rate Daily Precip Total
12:03 AM 70.6°F21.4°C 69.7°F20.9°C 97% 5.3 mph NE8.5 kmh NE 11.0 mph17.7 kmh 30.06 in1017.9 mb 0.00 in0.0 mm 0.00 in0.0 mm 0.00 in0.0 mm
12:08 AM 70.4°F21.3°C 69.5°F20.8°C 97% 7.3 mph NE11.7 kmh NE 12.0 mph19.3 kmh 30.06 in1017.9 mb 0.00 in0.0 mm 0.00 in0.0 mm 0.00 in0.0 mm
12:13 AM 70.2°F21.2°C 69.3°F20.7°C 97% 5.3 mph NE8.5 kmh NE 12.0 mph19.3 kmh 30.05 in1017.6 mb 0.00 in0.0 mm 0.00 in0.0 mm 0.00 in0.0 mm
12:18 AM 70.2°F21.2°C 69.3°F20.7°C 97% 3.4 mph ENE5.5 kmh ENE 12.0 mph19.3 kmh 30.05 in1017.6 mb 0.00 in0.0 mm 0.00 in0.0 mm 0.00 in0.0 mm
12:23 AM 70.1°F21.2°C 69.2°F20.7°C 97% 3.4 mph NE5.5 kmh NE 12.0 mph19.3 kmh 30.05 in1017.6 mb 0.00 in0.0 mm 0.00 in0.0 mm 0.00 in0.0 mm
12:28 AM 70.1°F21.2°C 69.2°F20.7°C 97% 5.6 mph NE9.0 kmh NE 10.0 mph16.1 kmh 30.05 in1017.6 mb 0.00 in0.0 mm 0.00 in0.0 mm 0.00 in0.0 mm
12:33 AM 70.0°F21.1°C 69.1°F20.6°C 97% 3.9 mph NE6.3 kmh NE 10.0 mph16.1 kmh 30.05 in1017.6 mb 0.00 in0.0 mm 0.00 in0.0 mm 0.00 in0.0 mm
12:38 AM 69.7°F20.9°C 68.8°F20.4°C 97% 3.9 mph NE6.3 kmh NE 10.0 mph16.1 kmh 30.05 in1017.6 mb 0.00 in0.0 mm 0.00 in0.0 mm 0.00 in0.0 mm
12:43 AM 69.5°F20.8°C 68.6°F20.3°C 97% 6.2 mph NE10.0 kmh NE 12.0 mph19.3 kmh 30.05 in1017.6 mb 0.00 in0.0 mm 0.00 in0.0 mm 0.00 in0.0 mm
12:48 AM 69.2°F20.7°C 68.3°F20.2°C 97% 6.7 mph NE10.8 kmh NE 12.0 mph19.3 kmh 30.05 in1017.6 mb 0.00 in0.0 mm 0.00 in0.0 mm 0.00 in0.0 mm
12:53 AM 69.1°F20.6°C 68.2°F20.1°C 97% 4.5 mph NE7.2 kmh NE 12.0 mph19.3 kmh 30.05 in1017.6 mb 0.00 in0.0 mm 0.00 in0.0 mm 0.00 in0.0 mm
12:58 AM 68.9°F20.5°C 68.0°F20.0°C 97% 2.9 mph NE4.7 kmh NE 12.0 mph19.3 kmh 30.05 in1017.6 mb 0.00 in0.0 mm 0.00 in0.0 mm 0.00 in0.0 mm
01:03 AM 68.7°F20.4°C 67.8°F19.9°C 97% 5.4 mph NE8.7 kmh NE 12.0 mph19.3 kmh 30.05 in1017.6 mb 0.00 in0.0 mm 0.00 in0.0 mm 0.00 in0.0 mm
01:08 AM 68.6°F20.3°C 67.7°F19.8°C 97% 5.9 mph NE9.5 kmh NE 12.0 mph19.3 kmh 30.05 in1017.6 mb 0.00 in0.0 mm 0.00 in0.0 mm 0.00 in0.0 mm
01:13 AM 68.4°F20.2°C 67.5°F19.7°C 97% 6.0 mph ENE9.7 kmh ENE 14.0 mph22.5 kmh 30.05 in1017.6 mb 0.00 in0.0 mm 0.00 in0.0 mm 0.00 in0.0 mm
01:18 AM 68.4°F20.2°C 67.5°F19.7°C 97% 4.8 mph NE7.7 kmh NE 14.0 mph22.5 kmh 30.05 in1017.6 mb 0.00 in0.0 mm 0.00 in0.0 mm 0.00 in0.0 mm
01:23 AM 68.3°F20.2°C 67.4°F19.7°C 97% 4.6 mph NE7.4 kmh NE 14.0 mph22.5 kmh 30.05 in1017.6 mb 0.00 in0.0 mm 0.00 in0.0 mm 0.00 in0.0 mm
01:28 AM 68.3°F20.2°C 67.4°F19.7°C 97% 3.2 mph ENE5.1 kmh ENE 14.0 mph22.5 kmh 30.05 in1017.6 mb 0.00 in0.0 mm 0.00 in0.0 mm 0.00 in0.0 mm
01:33 AM 68.3°F20.2°C 67.4°F19.7°C 97% 4.0 mph NE6.4 kmh NE 12.0 mph19.3 kmh 30.04 in1017.3 mb 0.00 in0.0 mm 0.00 in0.0 mm 0.00 in0.0 mm
01:38 AM 68.3°F20.2°C 67.4°F19.7°C 97% 4.2 mph ENE6.8 kmh ENE 12.0 mph19.3 kmh 30.04 in1017.3 mb 0.00 in0.0 mm 0.00 in0.0 mm 0.00 in0.0 mm
01:43 AM 68.2°F20.1°C 67.3°F19.6°C 97% 5.8 mph NE9.3 kmh NE 12.0 mph19.3 kmh 30.04 in1017.3 mb 0.00 in0.0 mm 0.00 in0.0 mm 0.00 in0.0 mm
01:48 AM 68.1°F20.1°C 67.2°F19.6°C 97% 3.8 mph NE6.1 kmh NE 12.0 mph19.3 kmh 30.04 in1017.3 mb 0.00 in0.0 mm 0.00 in0.0 mm 0.00 in0.0 mm
01:53 AM 68.0°F20.0°C 67.1°F19.5°C 97% 5.9 mph NE9.5 kmh NE 13.0 mph20.9 kmh 30.04 in1017.3 mb 0.00 in0.0 mm 0.00 in0.0 mm 0.00 in0.0 mm
01:58 AM 67.9°F19.9°C 67.0°F19.4°C 97% 4.7 mph NE7.6 kmh NE 13.0 mph20.9 kmh 30.04 in1017.3 mb 0.00 in0.0 mm 0.00 in0.0 mm 0.00 in0.0 mm
02:03 AM 67.8°F19.9°C 66.9°F19.4°C 97% 4.8 mph NE7.7 kmh NE 13.0 mph20.9 kmh 30.03 in1016.9 mb 0.00 in0.0 mm 0.00 in0.0 mm 0.00 in0.0 mm
02:08 AM 67.8°F19.9°C 66.9°F19.4°C 97% 3.1 mph NE5.0 kmh NE 13.0 mph20.9 kmh 30.03 in1016.9 mb 0.00 in0.0 mm 0.00 in0.0 mm 0.00 in0.0 mm
02:13 AM 67.7°F19.8°C 66.8°F19.3°C 97% 4.2 mph NE6.8 kmh NE 11.0 mph17.7 kmh 30.04 in1017.3 mb 0.00 in0.0 mm 0.00 in0.0 mm 0.00 in0.0 mm
02:18 AM 67.6°F19.8°C 66.7°F19.3°C 97% 5.0 mph NE8.0 kmh NE 13.0 mph20.9 kmh 30.03 in1016.9 mb 0.00 in0.0 mm 0.00 in0.0 mm 0.00 in0.0 mm
02:23 AM 67.6°F19.8°C 66.7°F19.3°C 97% 6.1 mph NE9.8 kmh NE 13.0 mph20.9 kmh 30.04 in1017.3 mb 0.00 in0.0 mm 0.00 in0.0 mm 0.00 in0.0 mm
02:28 AM 67.5°F19.7°C 66.6°F19.2°C 97% 6.7 mph NE10.8 kmh NE 13.0 mph20.9 kmh 30.03 in1016.9 mb 0.00 in0.0 mm 0.00 in0.0 mm 0.00 in0.0 mm
02:33 AM 67.5°F19.7°C 66.6°F19.2°C 97% 4.5 mph NE7.2 kmh NE 13.0 mph20.9 kmh 30.03 in1016.9 mb 0.00 in0.0 mm 0.00 in0.0 mm 0.00 in0.0 mm
02:38 AM 67.5°F19.7°C 66.6°F19.2°C 97% 6.3 mph NE10.1 kmh NE 14.0 mph22.5 kmh 30.03 in1016.9 mb 0.00 in0.0 mm 0.00 in0.0 mm 0.00 in0.0 mm
02:43 AM 67.4°F19.7°C 66.5°F19.2°C 97% 5.5 mph NE8.9 kmh NE 14.0 mph22.5 kmh 30.04 in1017.3 mb 0.00 in0.0 mm 0.00 in0.0 mm 0.00 in0.0 mm
02:48 AM 67.4°F19.7°C 66.5°F19.2°C 97% 7.0 mph NE11.3 kmh NE 16.0 mph25.7 kmh 30.04 in1017.3 mb 0.00 in0.0 mm 0.00 in0.0 mm 0.00 in0.0 mm
02:52 AM 67.3°F19.6°C 66.4°F19.1°C 97% 5.2 mph NE8.4 kmh NE 16.0 mph25.7 kmh 30.04 in1017.3 mb 0.00 in0.0 mm 0.00 in0.0 mm 0.00 in0.0 mm
02:57 AM 67.3°F19.6°C 66.4°F19.1°C 97% 6.7 mph NE10.8 kmh NE 16.0 mph25.7 kmh 30.04 in1017.3 mb 0.00 in0.0 mm 0.00 in0.0 mm 0.00 in0.0 mm
03:02 AM 67.2°F19.6°C 66.3°F19.1°C 97% 3.9 mph NE6.3 kmh NE 16.0 mph25.7 kmh 30.04 in1017.3 mb 0.00 in0.0 mm 0.00 in0.0 mm 0.00 in0.0 mm
03:07 AM 67.1°F19.5°C 66.2°F19.0°C 97% 6.2 mph NE10.0 kmh NE 14.0 mph22.5 kmh 30.03 in1016.9 mb 0.00 in0.0 mm 0.00 in0.0 mm 0.00 in0.0 mm
03:12 AM 67.1°F19.5°C 66.2°F19.0°C 97% 6.8 mph NE10.9 kmh NE 14.0 mph22.5 kmh 30.03 in1016.9 mb 0.00 in0.0 mm 0.00 in0.0 mm 0.00 in0.0 mm
03:17 AM 67.0°F19.4°C 66.1°F18.9°C 97% 6.9 mph NE11.1 kmh NE 15.0 mph24.1 kmh 30.03 in1016.9 mb 0.00 in0.0 mm 0.00 in0.0 mm 0.00 in0.0 mm
03:22 AM 67.0°F19.4°C 66.1°F18.9°C 97% 5.7 mph NE9.2 kmh NE 15.0 mph24.1 kmh 30.03 in1016.9 mb 0.00 in0.0 mm 0.00 in0.0 mm 0.00 in0.0 mm
03:27 AM 66.9°F19.4°C 66.0°F18.9°C 97% 8.0 mph NE12.9 kmh NE 15.0 mph24.1 kmh 30.02 in1016.6 mb 0.00 in0.0 mm 0.00 in0.0 mm 0.00 in0.0 mm
03:32 AM 66.8°F19.3°C 65.9°F18.8°C 97% 9.4 mph NE15.1 kmh NE 15.0 mph24.1 kmh 30.02 in1016.6 mb 0.00 in0.0 mm 0.00 in0.0 mm 0.00 in0.0 mm
03:37 AM 66.8°F19.3°C 65.9°F18.8°C 97% 6.1 mph NE9.8 kmh NE 15.0 mph24.1 kmh 30.02 in1016.6 mb 0.00 in0.0 mm 0.00 in0.0 mm 0.00 in0.0 mm
03:42 AM 66.7°F19.3°C 65.8°F18.8°C 97% 8.2 mph NE13.2 kmh NE 15.0 mph24.1 kmh 30.02 in1016.6 mb 0.00 in0.0 mm 0.00 in0.0 mm 0.00 in0.0 mm
03:47 AM 66.6°F19.2°C 65.7°F18.7°C 97% 6.4 mph NE10.3 kmh NE 15.0 mph24.1 kmh 30.02 in1016.6 mb 0.00 in0.0 mm 0.00 in0.0 mm 0.00 in0.0 mm
03:52 AM 66.5°F19.2°C 65.6°F18.7°C 97% 5.2 mph NE8.4 kmh NE 14.0 mph22.5 kmh 30.01 in1016.3 mb 0.00 in0.0 mm 0.00 in0.0 mm 0.00 in0.0 mm
03:57 AM 66.5°F19.2°C 65.6°F18.7°C 97% 5.1 mph NE8.2 kmh NE 14.0 mph22.5 kmh 30.01 in1016.3 mb 0.00 in0.0 mm 0.00 in0.0 mm 0.00 in0.0 mm
04:02 AM 66.4°F19.1°C 65.5°F18.6°C 97% 4.9 mph NE7.9 kmh NE 13.0 mph20.9 kmh 30.01 in1016.3 mb 0.00 in0.0 mm 0.00 in0.0 mm 0.00 in0.0 mm
04:07 AM 66.4°F19.1°C 65.5°F18.6°C 97% 6.5 mph NE10.5 kmh NE 13.0 mph20.9 kmh 30.01 in1016.3 mb 0.00 in0.0 mm 0.00 in0.0 mm 0.00 in0.0 mm
04:12 AM 66.5°F19.2°C 65.6°F18.7°C 97% 5.2 mph NE8.4 kmh NE 13.0 mph20.9 kmh 30.01 in1016.3 mb 0.00 in0.0 mm 0.00 in0.0 mm 0.00 in0.0 mm
04:17 AM 66.5°F19.2°C 65.6°F18.7°C 97% 5.6 mph NE9.0 kmh NE 13.0 mph20.9 kmh 30.01 in1016.3 mb 0.00 in0.0 mm 0.00 in0.0 mm 0.00 in0.0 mm
04:22 AM 66.5°F19.2°C 65.6°F18.7°C 97% 4.7 mph NE7.6 kmh NE 13.0 mph20.9 kmh 30.01 in1016.3 mb 0.00 in0.0 mm 0.00 in0.0 mm 0.00 in0.0 mm
04:27 AM 66.5°F19.2°C 65.6°F18.7°C 97% 4.7 mph NE7.6 kmh NE 13.0 mph20.9 kmh 30.02 in1016.6 mb 0.00 in0.0 mm 0.00 in0.0 mm 0.00 in0.0 mm
04:32 AM 66.6°F19.2°C 65.7°F18.7°C 97% 4.7 mph NE7.6 kmh NE 11.0 mph17.7 kmh 30.02 in1016.6 mb 0.00 in0.0 mm 0.00 in0.0 mm 0.00 in0.0 mm
04:37 AM 66.6°F19.2°C 65.7°F18.7°C 97% 2.9 mph NE4.7 kmh NE 10.0 mph16.1 kmh 30.02 in1016.6 mb 0.00 in0.0 mm 0.00 in0.0 mm 0.00 in0.0 mm
04:42 AM 66.6°F19.2°C 65.7°F18.7°C 97% 4.0 mph NE6.4 kmh NE 10.0 mph16.1 kmh 30.02 in1016.6 mb 0.00 in0.0 mm 0.00 in0.0 mm 0.00 in0.0 mm
04:47 AM 66.5°F19.2°C 65.6°F18.7°C 97% 5.7 mph NE9.2 kmh NE 11.0 mph17.7 kmh 30.02 in1016.6 mb 0.00 in0.0 mm 0.00 in0.0 mm 0.00 in0.0 mm
04:52 AM 66.4°F19.1°C 65.5°F18.6°C 97% 6.2 mph NE10.0 kmh NE 12.0 mph19.3 kmh 30.02 in1016.6 mb 0.00 in0.0 mm 0.00 in0.0 mm 0.00 in0.0 mm
04:57 AM 66.4°F19.1°C 65.5°F18.6°C 97% 7.7 mph NE12.4 kmh NE 13.0 mph20.9 kmh 30.02 in1016.6 mb 0.00 in0.0 mm 0.00 in0.0 mm 0.00 in0.0 mm
05:02 AM 66.3°F19.1°C 65.4°F18.6°C 97% 6.7 mph NE10.8 kmh NE 13.0 mph20.9 kmh 30.02 in1016.6 mb 0.00 in0.0 mm 0.00 in0.0 mm 0.00 in0.0 mm
05:07 AM 66.3°F19.1°C 65.4°F18.6°C 97% 8.3 mph NE13.4 kmh NE 16.0 mph25.7 kmh 30.03 in1016.9 mb 0.00 in0.0 mm 0.00 in0.0 mm 0.00 in0.0 mm
05:12 AM 66.4°F19.1°C 65.5°F18.6°C 97% 4.8 mph NE7.7 kmh NE 17.0 mph27.4 kmh 30.03 in1016.9 mb 0.00 in0.0 mm 0.00 in0.0 mm 0.00 in0.0 mm
05:17 AM 66.3°F19.1°C 65.4°F18.6°C 97% 7.5 mph NE12.1 kmh NE 17.0 mph27.4 kmh 30.03 in1016.9 mb 0.00 in0.0 mm 0.00 in0.0 mm 0.00 in0.0 mm
05:22 AM 66.3°F19.1°C 65.4°F18.6°C 97% 5.7 mph NE9.2 kmh NE 17.0 mph27.4 kmh 30.03 in1016.9 mb 0.00 in0.0 mm 0.00 in0.0 mm 0.00 in0.0 mm
05:27 AM 66.3°F19.1°C 65.4°F18.6°C 97% 4.1 mph NE6.6 kmh NE 17.0 mph27.4 kmh 30.03 in1016.9 mb 0.00 in0.0 mm 0.00 in0.0 mm 0.00 in0.0 mm
05:32 AM 66.3°F19.1°C 65.4°F18.6°C 97% 4.8 mph NE7.7 kmh NE 13.0 mph20.9 kmh 30.04 in1017.3 mb 0.00 in0.0 mm 0.00 in0.0 mm 0.00 in0.0 mm
05:37 AM 66.3°F19.1°C 65.4°F18.6°C 97% 4.5 mph NE7.2 kmh NE 11.0 mph17.7 kmh 30.04 in1017.3 mb 0.00 in0.0 mm 0.00 in0.0 mm 0.00 in0.0 mm
05:42 AM 66.2°F19.0°C 65.3°F18.5°C 97% 5.0 mph NE8.0 kmh NE 10.0 mph16.1 kmh 30.04 in1017.3 mb 0.00 in0.0 mm 0.00 in0.0 mm 0.00 in0.0 mm
05:47 AM 66.2°F19.0°C 65.3°F18.5°C 97% 3.2 mph NE5.1 kmh NE 9.0 mph14.5 kmh 30.04 in1017.3 mb 0.00 in0.0 mm 0.00 in0.0 mm 0.00 in0.0 mm
05:52 AM 66.2°F19.0°C 65.3°F18.5°C 97% 3.4 mph ENE5.5 kmh ENE 9.0 mph14.5 kmh 30.05 in1017.6 mb 0.00 in0.0 mm 0.00 in0.0 mm 0.00 in0.0 mm
05:57 AM 66.2°F19.0°C 65.3°F18.5°C 97% 3.2 mph NE5.1 kmh NE 10.0 mph16.1 kmh 30.05 in1017.6 mb 0.00 in0.0 mm 0.00 in0.0 mm 0.00 in0.0 mm
06:02 AM 66.1°F18.9°C 65.2°F18.4°C 97% 2.8 mph NE4.5 kmh NE 10.0 mph16.1 kmh 30.05 in1017.6 mb 0.00 in0.0 mm 0.00 in0.0 mm 0.00 in0.0 mm
06:07 AM 66.1°F18.9°C 65.5°F18.6°C 98% 4.0 mph NE6.4 kmh NE 10.0 mph16.1 kmh 30.05 in1017.6 mb 0.00 in0.0 mm 0.00 in0.0 mm 0.00 in0.0 mm
06:12 AM 66.1°F18.9°C 65.5°F18.6°C 98% 4.2 mph NE6.8 kmh NE 10.0 mph16.1 kmh 30.06 in1017.9 mb 0.01 in0.3 mm 0.12 in3.0 mm 0.01 in0.3 mm
06:18 AM 66.0°F18.9°C 65.4°F18.6°C 98% 4.4 mph NE7.1 kmh NE 8.0 mph12.9 kmh 30.06 in1017.9 mb 0.01 in0.3 mm 0.00 in0.0 mm 0.01 in0.3 mm
06:23 AM 66.0°F18.9°C 65.4°F18.6°C 98% 2.7 mph NE4.3 kmh NE 8.0 mph12.9 kmh 30.06 in1017.9 mb 0.01 in0.3 mm 0.00 in0.0 mm 0.01 in0.3 mm
06:28 AM 66.0°F18.9°C 65.4°F18.6°C 98% 4.3 mph NE6.9 kmh NE 10.0 mph16.1 kmh 30.06 in1017.9 mb 0.01 in0.3 mm 0.00 in0.0 mm 0.01 in0.3 mm
06:33 AM 65.9°F18.8°C 65.3°F18.5°C 98% 4.4 mph NE7.1 kmh NE 13.0 mph20.9 kmh 30.07 in1018.3 mb 0.01 in0.3 mm 0.00 in0.0 mm 0.01 in0.3 mm
06:38 AM 66.0°F18.9°C 65.4°F18.6°C 98% 2.6 mph NE4.2 kmh NE 13.0 mph20.9 kmh 30.07 in1018.3 mb 0.01 in0.3 mm 0.00 in0.0 mm 0.01 in0.3 mm
06:43 AM 65.9°F18.8°C 65.3°F18.5°C 98% 3.7 mph ENE6.0 kmh ENE 13.0 mph20.9 kmh 30.07 in1018.3 mb 0.01 in0.3 mm 0.00 in0.0 mm 0.01 in0.3 mm
06:48 AM 65.9°F18.8°C 65.3°F18.5°C 98% 4.2 mph NE6.8 kmh NE 10.0 mph16.1 kmh 30.07 in1018.3 mb 0.01 in0.3 mm 0.00 in0.0 mm 0.01 in0.3 mm
06:53 AM 65.9°F18.8°C 65.3°F18.5°C 98% 3.0 mph NE4.8 kmh NE 8.0 mph12.9 kmh 30.08 in1018.6 mb 0.01 in0.3 mm 0.00 in0.0 mm 0.01 in0.3 mm
06:58 AM 65.9°F18.8°C 65.3°F18.5°C 98% 5.4 mph NE8.7 kmh NE 10.0 mph16.1 kmh 30.08 in1018.6 mb 0.01 in0.3 mm 0.00 in0.0 mm 0.01 in0.3 mm
07:02 AM 65.8°F18.8°C 65.2°F18.4°C 98% 4.6 mph NE7.4 kmh NE 10.0 mph16.1 kmh 30.07 in1018.3 mb 0.01 in0.3 mm 0.00 in0.0 mm 0.01 in0.3 mm
07:08 AM 65.8°F18.8°C 65.2°F18.4°C 98% 4.2 mph NE6.8 kmh NE 10.0 mph16.1 kmh 30.08 in1018.6 mb 0.01 in0.3 mm 0.00 in0.0 mm 0.01 in0.3 mm
07:13 AM 65.8°F18.8°C 65.2°F18.4°C 98% 3.3 mph NE5.3 kmh NE 10.0 mph16.1 kmh 30.08 in1018.6 mb 0.00 in0.0 mm 0.00 in0.0 mm 0.01 in0.3 mm
07:18 AM 65.8°F18.8°C 65.2°F18.4°C 98% 4.4 mph NE7.1 kmh NE 9.0 mph14.5 kmh 30.08 in1018.6 mb 0.00 in0.0 mm 0.00 in0.0 mm 0.01 in0.3 mm
07:23 AM 65.8°F18.8°C 65.2°F18.4°C 98% 3.2 mph NE5.1 kmh NE 9.0 mph14.5 kmh 30.08 in1018.6 mb 0.00 in0.0 mm 0.00 in0.0 mm 0.01 in0.3 mm
07:28 AM 65.7°F18.7°C 65.1°F18.4°C 98% 4.4 mph NE7.1 kmh NE 9.0 mph14.5 kmh 30.08 in1018.6 mb 0.00 in0.0 mm 0.00 in0.0 mm 0.01 in0.3 mm
07:33 AM 65.7°F18.7°C 65.1°F18.4°C 98% 4.1 mph NE6.6 kmh NE 9.0 mph14.5 kmh 30.08 in1018.6 mb 0.00 in0.0 mm 0.00 in0.0 mm 0.01 in0.3 mm
07:38 AM 65.7°F18.7°C 65.1°F18.4°C 98% 5.6 mph NE9.0 kmh NE 9.0 mph14.5 kmh 30.08 in1018.6 mb 0.00 in0.0 mm 0.00 in0.0 mm 0.01 in0.3 mm
07:43 AM 65.7°F18.7°C 65.1°F18.4°C 98% 3.4 mph NE5.5 kmh NE 10.0 mph16.1 kmh 30.07 in1018.3 mb 0.00 in0.0 mm 0.00 in0.0 mm 0.01 in0.3 mm
07:48 AM 65.7°F18.7°C 65.1°F18.4°C 98% 4.6 mph NE7.4 kmh NE 11.0 mph17.7 kmh 30.08 in1018.6 mb 0.00 in0.0 mm 0.00 in0.0 mm 0.01 in0.3 mm
07:53 AM 65.8°F18.8°C 65.2°F18.4°C 98% 3.6 mph NE5.8 kmh NE 11.0 mph17.7 kmh 30.07 in1018.3 mb 0.00 in0.0 mm 0.00 in0.0 mm 0.01 in0.3 mm
07:58 AM 65.7°F18.7°C 64.8°F18.2°C 97% 4.1 mph NE6.6 kmh NE 11.0 mph17.7 kmh 30.08 in1018.6 mb 0.00 in0.0 mm 0.00 in0.0 mm 0.01 in0.3 mm
08:03 AM 65.8°F18.8°C 64.9°F18.3°C 97% 2.9 mph NE4.7 kmh NE 11.0 mph17.7 kmh 30.08 in1018.6 mb 0.00 in0.0 mm 0.00 in0.0 mm 0.01 in0.3 mm
08:08 AM 65.8°F18.8°C 64.9°F18.3°C 97% 4.6 mph NE7.4 kmh NE 10.0 mph16.1 kmh 30.07 in1018.3 mb 0.00 in0.0 mm 0.00 in0.0 mm 0.01 in0.3 mm
08:13 AM 65.9°F18.8°C 65.0°F18.3°C 97% 3.4 mph NE5.5 kmh NE 10.0 mph16.1 kmh 30.08 in1018.6 mb 0.00 in0.0 mm 0.00 in0.0 mm 0.01 in0.3 mm
08:18 AM 65.9°F18.8°C 65.0°F18.3°C 97% 3.2 mph NE5.1 kmh NE 8.0 mph12.9 kmh 30.08 in1018.6 mb 0.00 in0.0 mm 0.00 in0.0 mm 0.01 in0.3 mm
08:23 AM 65.9°F18.8°C 65.0°F18.3°C 97% 5.1 mph NE8.2 kmh NE 8.0 mph12.9 kmh 30.08 in1018.6 mb 0.00 in0.0 mm 0.00 in0.0 mm 0.01 in0.3 mm
08:28 AM 65.9°F18.8°C 65.0°F18.3°C 97% 4.9 mph NE7.9 kmh NE 8.0 mph12.9 kmh 30.08 in1018.6 mb 0.00 in0.0 mm 0.00 in0.0 mm 0.01 in0.3 mm
08:33 AM 66.1°F18.9°C 65.2°F18.4°C 97% 2.3 mph NE3.7 kmh NE 8.0 mph12.9 kmh 30.08 in1018.6 mb 0.00 in0.0 mm 0.00 in0.0 mm 0.01 in0.3 mm
08:38 AM 65.9°F18.8°C 65.0°F18.3°C 97% 4.6 mph NE7.4 kmh NE 14.0 mph22.5 kmh 30.08 in1018.6 mb 0.00 in0.0 mm 0.00 in0.0 mm 0.01 in0.3 mm
08:43 AM 66.0°F18.9°C 65.1°F18.4°C 97% 3.4 mph NE5.5 kmh NE 14.0 mph22.5 kmh 30.08 in1018.6 mb 0.00 in0.0 mm 0.00 in0.0 mm 0.01 in0.3 mm
08:48 AM 66.0°F18.9°C 65.1°F18.4°C 97% 2.2 mph NE3.5 kmh NE 14.0 mph22.5 kmh 30.08 in1018.6 mb 0.00 in0.0 mm 0.00 in0.0 mm 0.01 in0.3 mm
08:51 AM 65.9°F18.8°C 65.0°F18.3°C 97% 5.6 mph NE9.0 kmh NE 14.0 mph22.5 kmh 30.08 in1018.6 mb 0.00 in0.0 mm 0.00 in0.0 mm 0.01 in0.3 mm
08:56 AM 66.0°F18.9°C 65.1°F18.4°C 97% 2.3 mph NE3.7 kmh NE 9.0 mph14.5 kmh 30.08 in1018.6 mb 0.00 in0.0 mm 0.00 in0.0 mm 0.01 in0.3 mm
09:02 AM 66.0°F18.9°C 65.1°F18.4°C 97% 3.8 mph NE6.1 kmh NE 8.0 mph12.9 kmh 30.09 in1019.0 mb 0.00 in0.0 mm 0.00 in0.0 mm 0.01 in0.3 mm
09:07 AM 66.2°F19.0°C 65.3°F18.5°C 97% 3.2 mph NE5.1 kmh NE 8.0 mph12.9 kmh 30.09 in1019.0 mb 0.00 in0.0 mm 0.00 in0.0 mm 0.01 in0.3 mm
09:12 AM 66.2°F19.0°C 65.0°F18.3°C 96% 5.6 mph NE9.0 kmh NE 11.0 mph17.7 kmh 30.09 in1019.0 mb 0.00 in0.0 mm 0.00 in0.0 mm 0.01 in0.3 mm
09:17 AM 66.2°F19.0°C 65.0°F18.3°C 96% 5.7 mph NE9.2 kmh NE 11.0 mph17.7 kmh 30.09 in1019.0 mb 0.00 in0.0 mm 0.00 in0.0 mm 0.01 in0.3 mm
09:22 AM 66.3°F19.1°C 65.1°F18.4°C 96% 3.5 mph NE5.6 kmh NE 11.0 mph17.7 kmh 30.09 in1019.0 mb 0.00 in0.0 mm 0.00 in0.0 mm 0.01 in0.3 mm
09:27 AM 66.4°F19.1°C 65.2°F18.4°C 96% 4.6 mph NE7.4 kmh NE 11.0 mph17.7 kmh 30.09 in1019.0 mb 0.00 in0.0 mm 0.00 in0.0 mm 0.01 in0.3 mm
09:32 AM 66.6°F19.2°C 65.4°F18.6°C 96% 1.6 mph ENE2.6 kmh ENE 10.0 mph16.1 kmh 30.09 in1019.0 mb 0.00 in0.0 mm 0.00 in0.0 mm 0.01 in0.3 mm
09:37 AM 66.7°F19.3°C 65.5°F18.6°C 96% 1.5 mph NE2.4 kmh NE 9.0 mph14.5 kmh 30.09 in1019.0 mb 0.00 in0.0 mm 0.00 in0.0 mm 0.01 in0.3 mm
09:42 AM 66.7°F19.3°C 65.2°F18.4°C 95% 6.2 mph NE10.0 kmh NE 9.0 mph14.5 kmh 30.10 in1019.3 mb 0.00 in0.0 mm 0.00 in0.0 mm 0.01 in0.3 mm
09:47 AM 66.6°F19.2°C 65.1°F18.4°C 95% 3.4 mph NE5.5 kmh NE 9.0 mph14.5 kmh 30.10 in1019.3 mb 0.00 in0.0 mm 0.00 in0.0 mm 0.01 in0.3 mm
09:52 AM 66.4°F19.1°C 64.9°F18.3°C 95% 3.8 mph NE6.1 kmh NE 9.0 mph14.5 kmh 30.10 in1019.3 mb 0.00 in0.0 mm 0.00 in0.0 mm 0.01 in0.3 mm
09:57 AM 66.2°F19.0°C 64.7°F18.2°C 95% 5.7 mph NE9.2 kmh NE 11.0 mph17.7 kmh 30.09 in1019.0 mb 0.00 in0.0 mm 0.00 in0.0 mm 0.01 in0.3 mm
10:02 AM 66.2°F19.0°C 64.7°F18.2°C 95% 5.3 mph ENE8.5 kmh ENE 11.0 mph17.7 kmh 30.09 in1019.0 mb 0.00 in0.0 mm 0.00 in0.0 mm 0.01 in0.3 mm
10:07 AM 66.1°F18.9°C 64.6°F18.1°C 95% 5.1 mph NE8.2 kmh NE 12.0 mph19.3 kmh 30.10 in1019.3 mb 0.00 in0.0 mm 0.00 in0.0 mm 0.01 in0.3 mm
10:12 AM 66.2°F19.0°C 64.7°F18.2°C 95% 4.4 mph NE7.1 kmh NE 12.0 mph19.3 kmh 30.09 in1019.0 mb 0.00 in0.0 mm 0.00 in0.0 mm 0.01 in0.3 mm
10:17 AM 66.2°F19.0°C 64.7°F18.2°C 95% 5.4 mph NE8.7 kmh NE 12.0 mph19.3 kmh 30.09 in1019.0 mb 0.00 in0.0 mm 0.00 in0.0 mm 0.01 in0.3 mm
10:22 AM 66.2°F19.0°C 64.4°F18.0°C 94% 6.3 mph NE10.1 kmh NE 12.0 mph19.3 kmh 30.10 in1019.3 mb 0.00 in0.0 mm 0.00 in0.0 mm 0.01 in0.3 mm
10:27 AM 66.3°F19.1°C 64.5°F18.1°C 94% 5.0 mph NE8.0 kmh NE 11.0 mph17.7 kmh 30.10 in1019.3 mb 0.00 in0.0 mm 0.00 in0.0 mm 0.01 in0.3 mm
10:32 AM 66.4°F19.1°C 64.6°F18.1°C 94% 5.3 mph NE8.5 kmh NE 11.0 mph17.7 kmh 30.10 in1019.3 mb 0.00 in0.0 mm 0.00 in0.0 mm 0.01 in0.3 mm
10:37 AM 66.5°F19.2°C 64.7°F18.2°C 94% 3.6 mph ENE5.8 kmh ENE 11.0 mph17.7 kmh 30.10 in1019.3 mb 0.00 in0.0 mm 0.00 in0.0 mm 0.01 in0.3 mm
10:42 AM 66.6°F19.2°C 64.8°F18.2°C 94% 3.8 mph NE6.1 kmh NE 11.0 mph17.7 kmh 30.10 in1019.3 mb 0.00 in0.0 mm 0.00 in0.0 mm 0.01 in0.3 mm
10:47 AM 66.8°F19.3°C 65.0°F18.3°C 94% 3.1 mph E5.0 kmh E 11.0 mph17.7 kmh 30.09 in1019.0 mb 0.00 in0.0 mm 0.00 in0.0 mm 0.01 in0.3 mm
10:52 AM 67.1°F19.5°C 65.3°F18.5°C 94% 2.0 mph E3.2 kmh E 10.0 mph16.1 kmh 30.09 in1019.0 mb 0.00 in0.0 mm 0.00 in0.0 mm 0.01 in0.3 mm
10:57 AM 67.3°F19.6°C 65.5°F18.6°C 94% 3.3 mph ENE5.3 kmh ENE 10.0 mph16.1 kmh 30.09 in1019.0 mb 0.00 in0.0 mm 0.00 in0.0 mm 0.01 in0.3 mm
11:02 AM 67.3°F19.6°C 64.9°F18.3°C 92% 5.1 mph NE8.2 kmh NE 10.0 mph16.1 kmh 30.09 in1019.0 mb 0.00 in0.0 mm 0.00 in0.0 mm 0.01 in0.3 mm
11:07 AM 67.5°F19.7°C 65.4°F18.6°C 93% 3.2 mph NE5.1 kmh NE 9.0 mph14.5 kmh 30.09 in1019.0 mb 0.00 in0.0 mm 0.00 in0.0 mm 0.01 in0.3 mm
11:12 AM 67.6°F19.8°C 65.2°F18.4°C 92% 3.2 mph NE5.1 kmh NE 9.0 mph14.5 kmh 30.09 in1019.0 mb 0.00 in0.0 mm 0.00 in0.0 mm 0.01 in0.3 mm
11:17 AM 67.7°F19.8°C 65.3°F18.5°C 92% 4.2 mph NE6.8 kmh NE 9.0 mph14.5 kmh 30.09 in1019.0 mb 0.00 in0.0 mm 0.00 in0.0 mm 0.01 in0.3 mm
11:22 AM 67.7°F19.8°C 65.3°F18.5°C 92% 4.6 mph NE7.4 kmh NE 9.0 mph14.5 kmh 30.09 in1019.0 mb 0.00 in0.0 mm 0.00 in0.0 mm 0.01 in0.3 mm
11:27 AM 67.8°F19.9°C 65.4°F18.6°C 92% 2.9 mph NE4.7 kmh NE 11.0 mph17.7 kmh 30.09 in1019.0 mb 0.00 in0.0 mm 0.00 in0.0 mm 0.01 in0.3 mm
11:32 AM 68.1°F20.1°C 65.7°F18.7°C 92% 6.2 mph NE10.0 kmh NE 11.0 mph17.7 kmh 30.09 in1019.0 mb 0.00 in0.0 mm 0.00 in0.0 mm 0.01 in0.3 mm
11:37 AM 68.4°F20.2°C 66.0°F18.9°C 92% 2.0 mph NE3.2 kmh NE 11.0 mph17.7 kmh 30.08 in1018.6 mb 0.00 in0.0 mm 0.00 in0.0 mm 0.01 in0.3 mm
11:42 AM 68.9°F20.5°C 66.1°F18.9°C 91% 2.2 mph ENE3.5 kmh ENE 11.0 mph17.7 kmh 30.08 in1018.6 mb 0.00 in0.0 mm 0.00 in0.0 mm 0.01 in0.3 mm
11:47 AM 69.0°F20.6°C 65.9°F18.8°C 90% 3.1 mph NE5.0 kmh NE 11.0 mph17.7 kmh 30.08 in1018.6 mb 0.00 in0.0 mm 0.00 in0.0 mm 0.01 in0.3 mm
11:52 AM 69.3°F20.7°C 65.9°F18.8°C 89% 4.5 mph ENE7.2 kmh ENE 8.0 mph12.9 kmh 30.08 in1018.6 mb 0.00 in0.0 mm 0.00 in0.0 mm 0.01 in0.3 mm
11:57 AM 69.4°F20.8°C 66.0°F18.9°C 89% 3.4 mph E5.5 kmh E 8.0 mph12.9 kmh 30.08 in1018.6 mb 0.00 in0.0 mm 0.00 in0.0 mm 0.01 in0.3 mm
12:02 PM 69.7°F20.9°C 66.3°F19.1°C 89% 5.6 mph E9.0 kmh E 9.0 mph14.5 kmh 30.07 in1018.3 mb 0.00 in0.0 mm 0.00 in0.0 mm 0.01 in0.3 mm
12:07 PM 69.9°F21.1°C 66.5°F19.2°C 89% 5.4 mph NE8.7 kmh NE 10.0 mph16.1 kmh 30.07 in1018.3 mb 0.00 in0.0 mm 0.00 in0.0 mm 0.01 in0.3 mm
12:12 PM 70.2°F21.2°C 66.8°F19.3°C 89% 3.4 mph ENE5.5 kmh ENE 10.0 mph16.1 kmh 30.07 in1018.3 mb 0.00 in0.0 mm 0.00 in0.0 mm 0.01 in0.3 mm
12:17 PM 70.5°F21.4°C 66.4°F19.1°C 87% 5.6 mph NE9.0 kmh NE 11.0 mph17.7 kmh 30.07 in1018.3 mb 0.00 in0.0 mm 0.00 in0.0 mm 0.01 in0.3 mm
12:22 PM 70.6°F21.4°C 66.9°F19.4°C 88% 3.8 mph NE6.1 kmh NE 11.0 mph17.7 kmh 30.07 in1018.3 mb 0.00 in0.0 mm 0.00 in0.0 mm 0.01 in0.3 mm
12:27 PM 70.8°F21.6°C 66.4°F19.1°C 86% 4.7 mph ENE7.6 kmh ENE 11.0 mph17.7 kmh 30.08 in1018.6 mb 0.00 in0.0 mm 0.00 in0.0 mm 0.01 in0.3 mm
12:32 PM 70.7°F21.5°C 66.6°F19.2°C 87% 4.1 mph E6.6 kmh E 11.0 mph17.7 kmh 30.07 in1018.3 mb 0.00 in0.0 mm 0.00 in0.0 mm 0.01 in0.3 mm
12:37 PM 70.8°F21.6°C 66.4°F19.1°C 86% 4.6 mph NE7.4 kmh NE 10.0 mph16.1 kmh 30.07 in1018.3 mb 0.00 in0.0 mm 0.00 in0.0 mm 0.01 in0.3 mm
12:42 PM 70.8°F21.6°C 66.4°F19.1°C 86% 2.2 mph NE3.5 kmh NE 10.0 mph16.1 kmh 30.07 in1018.3 mb 0.00 in0.0 mm 0.00 in0.0 mm 0.01 in0.3 mm
12:47 PM 71.1°F21.7°C 67.0°F19.4°C 87% 3.1 mph E5.0 kmh E 9.0 mph14.5 kmh 30.08 in1018.6 mb 0.00 in0.0 mm 0.00 in0.0 mm 0.01 in0.3 mm
12:52 PM 71.0°F21.7°C 66.6°F19.2°C 86% 2.7 mph E4.3 kmh E 9.0 mph14.5 kmh 30.08 in1018.6 mb 0.00 in0.0 mm 0.00 in0.0 mm 0.01 in0.3 mm
12:57 PM 70.9°F21.6°C 66.8°F19.3°C 87% 3.4 mph E5.5 kmh E 9.0 mph14.5 kmh 30.08 in1018.6 mb 0.00 in0.0 mm 0.00 in0.0 mm 0.01 in0.3 mm
01:02 PM 71.0°F21.7°C 66.9°F19.4°C 87% 3.0 mph ESE4.8 kmh ESE 9.0 mph14.5 kmh 30.08 in1018.6 mb 0.00 in0.0 mm 0.00 in0.0 mm 0.01 in0.3 mm
01:07 PM 71.1°F21.7°C 66.7°F19.3°C 86% 3.0 mph E4.8 kmh E 8.0 mph12.9 kmh 30.07 in1018.3 mb 0.00 in0.0 mm 0.00 in0.0 mm 0.01 in0.3 mm
01:12 PM 71.3°F21.8°C 66.9°F19.4°C 86% 3.6 mph E5.8 kmh E 8.0 mph12.9 kmh 30.07 in1018.3 mb 0.00 in0.0 mm 0.00 in0.0 mm 0.01 in0.3 mm
01:17 PM 71.4°F21.9°C 67.0°F19.4°C 86% 2.0 mph NE3.2 kmh NE 8.0 mph12.9 kmh 30.07 in1018.3 mb 0.00 in0.0 mm 0.00 in0.0 mm 0.01 in0.3 mm
01:22 PM 71.6°F22.0°C 67.2°F19.6°C 86% 2.2 mph ENE3.5 kmh ENE 8.0 mph12.9 kmh 30.07 in1018.3 mb 0.00 in0.0 mm 0.00 in0.0 mm 0.01 in0.3 mm
01:27 PM 71.5°F21.9°C 67.1°F19.5°C 86% 1.6 mph ENE2.6 kmh ENE 7.0 mph11.3 kmh 30.07 in1018.3 mb 0.00 in0.0 mm 0.00 in0.0 mm 0.01 in0.3 mm
01:32 PM 71.7°F22.1°C 67.3°F19.6°C 86% 3.1 mph NE5.0 kmh NE 7.0 mph11.3 kmh 30.06 in1017.9 mb 0.00 in0.0 mm 0.00 in0.0 mm 0.01 in0.3 mm
01:37 PM 72.1°F22.3°C 67.7°F19.8°C 86% 2.6 mph NE4.2 kmh NE 7.0 mph11.3 kmh 30.06 in1017.9 mb 0.00 in0.0 mm 0.00 in0.0 mm 0.01 in0.3 mm
01:42 PM 72.4°F22.4°C 67.7°F19.8°C 85% 2.9 mph E4.7 kmh E 7.0 mph11.3 kmh 30.06 in1017.9 mb 0.00 in0.0 mm 0.00 in0.0 mm 0.01 in0.3 mm
01:47 PM 72.3°F22.4°C 67.6°F19.8°C 85% 4.5 mph E7.2 kmh E 9.0 mph14.5 kmh 30.06 in1017.9 mb 0.00 in0.0 mm 0.00 in0.0 mm 0.01 in0.3 mm
01:52 PM 72.5°F22.5°C 67.8°F19.9°C 85% 5.0 mph NE8.0 kmh NE 11.0 mph17.7 kmh 30.06 in1017.9 mb 0.00 in0.0 mm 0.00 in0.0 mm 0.01 in0.3 mm
01:57 PM 72.8°F22.7°C 67.7°F19.8°C 84% 4.4 mph E7.1 kmh E 11.0 mph17.7 kmh 30.05 in1017.6 mb 0.00 in0.0 mm 0.00 in0.0 mm 0.01 in0.3 mm
02:02 PM 73.5°F23.1°C 67.7°F19.8°C 82% 5.4 mph NE8.7 kmh NE 11.0 mph17.7 kmh 30.05 in1017.6 mb 0.00 in0.0 mm 0.00 in0.0 mm 0.01 in0.3 mm
02:07 PM 73.6°F23.1°C 68.5°F20.3°C 84% 4.2 mph E6.8 kmh E 11.0 mph17.7 kmh 30.05 in1017.6 mb 0.00 in0.0 mm 0.00 in0.0 mm 0.01 in0.3 mm
02:12 PM 73.7°F23.2°C 68.3°F20.2°C 83% 4.3 mph NE6.9 kmh NE 11.0 mph17.7 kmh 30.05 in1017.6 mb 0.00 in0.0 mm 0.00 in0.0 mm 0.01 in0.3 mm
02:17 PM 73.8°F23.2°C 68.4°F20.2°C 83% 4.8 mph E7.7 kmh E 11.0 mph17.7 kmh 30.05 in1017.6 mb 0.00 in0.0 mm 0.00 in0.0 mm 0.01 in0.3 mm
02:22 PM 73.5°F23.1°C 68.0°F20.0°C 83% 4.4 mph ENE7.1 kmh ENE 9.0 mph14.5 kmh 30.05 in1017.6 mb 0.00 in0.0 mm 0.00 in0.0 mm 0.01 in0.3 mm
02:27 PM 73.1°F22.8°C 67.6°F19.8°C 83% 3.5 mph ENE5.6 kmh ENE 9.0 mph14.5 kmh 30.04 in1017.3 mb 0.00 in0.0 mm 0.00 in0.0 mm 0.01 in0.3 mm
02:32 PM 73.1°F22.8°C 67.6°F19.8°C 83% 5.1 mph NE8.2 kmh NE 9.0 mph14.5 kmh 30.04 in1017.3 mb 0.00 in0.0 mm 0.00 in0.0 mm 0.01 in0.3 mm
02:37 PM 73.2°F22.9°C 67.7°F19.8°C 83% 4.7 mph NE7.6 kmh NE 9.0 mph14.5 kmh 30.04 in1017.3 mb 0.00 in0.0 mm 0.00 in0.0 mm 0.01 in0.3 mm
02:42 PM 73.3°F22.9°C 68.2°F20.1°C 84% 4.5 mph NE7.2 kmh NE 10.0 mph16.1 kmh 30.04 in1017.3 mb 0.00 in0.0 mm 0.00 in0.0 mm 0.01 in0.3 mm
02:47 PM 73.7°F23.2°C 68.6°F20.3°C 84% 2.5 mph ENE4.0 kmh ENE 10.0 mph16.1 kmh 30.04 in1017.3 mb 0.00 in0.0 mm 0.00 in0.0 mm 0.01 in0.3 mm
02:51 PM 73.5°F23.1°C 68.4°F20.2°C 84% 3.5 mph NE5.6 kmh NE 10.0 mph16.1 kmh 30.03 in1016.9 mb 0.00 in0.0 mm 0.00 in0.0 mm 0.01 in0.3 mm
02:56 PM 73.6°F23.1°C 68.2°F20.1°C 83% 3.8 mph ENE6.1 kmh ENE 10.0 mph16.1 kmh 30.03 in1016.9 mb 0.00 in0.0 mm 0.00 in0.0 mm 0.01 in0.3 mm
03:01 PM 73.1°F22.8°C 68.0°F20.0°C 84% 4.3 mph NE6.9 kmh NE 7.0 mph11.3 kmh 30.03 in1016.9 mb 0.00 in0.0 mm 0.00 in0.0 mm 0.01 in0.3 mm
03:06 PM 73.2°F22.9°C 68.5°F20.3°C 85% 1.6 mph NE2.6 kmh NE 8.0 mph12.9 kmh 30.03 in1016.9 mb 0.00 in0.0 mm 0.00 in0.0 mm 0.01 in0.3 mm
03:11 PM 73.4°F23.0°C 68.6°F20.3°C 85% 3.0 mph E4.8 kmh E 8.0 mph12.9 kmh 30.03 in1016.9 mb 0.00 in0.0 mm 0.00 in0.0 mm 0.01 in0.3 mm
03:16 PM 73.4°F23.0°C 68.3°F20.2°C 84% 4.1 mph E6.6 kmh E 8.0 mph12.9 kmh 30.02 in1016.6 mb 0.00 in0.0 mm 0.00 in0.0 mm 0.01 in0.3 mm
03:21 PM 73.3°F22.9°C 68.2°F20.1°C 84% 2.9 mph E4.7 kmh E 8.0 mph12.9 kmh 30.02 in1016.6 mb 0.00 in0.0 mm 0.00 in0.0 mm 0.01 in0.3 mm
03:26 PM 73.5°F23.1°C 68.4°F20.2°C 84% 2.6 mph E4.2 kmh E 6.0 mph9.7 kmh 30.02 in1016.6 mb 0.00 in0.0 mm 0.00 in0.0 mm 0.01 in0.3 mm
03:31 PM 73.6°F23.1°C 68.8°F20.4°C 85% 2.2 mph E3.5 kmh E 6.0 mph9.7 kmh 30.02 in1016.6 mb 0.00 in0.0 mm 0.00 in0.0 mm 0.01 in0.3 mm
03:36 PM 73.7°F23.2°C 68.6°F20.3°C 84% 4.4 mph ENE7.1 kmh ENE 8.0 mph12.9 kmh 30.02 in1016.6 mb 0.00 in0.0 mm 0.00 in0.0 mm 0.01 in0.3 mm
03:41 PM 73.6°F23.1°C 68.5°F20.3°C 84% 3.7 mph ENE6.0 kmh ENE 8.0 mph12.9 kmh 30.02 in1016.6 mb 0.00 in0.0 mm 0.00 in0.0 mm 0.01 in0.3 mm
03:46 PM 73.7°F23.2°C 68.6°F20.3°C 84% 2.5 mph E4.0 kmh E 8.0 mph12.9 kmh 30.02 in1016.6 mb 0.00 in0.0 mm 0.00 in0.0 mm 0.01 in0.3 mm
03:51 PM 73.9°F23.3°C 68.8°F20.4°C 84% 2.2 mph E3.5 kmh E 8.0 mph12.9 kmh 30.02 in1016.6 mb 0.00 in0.0 mm 0.00 in0.0 mm 0.01 in0.3 mm
03:56 PM 73.9°F23.3°C 68.8°F20.4°C 84% 5.2 mph E8.4 kmh E 9.0 mph14.5 kmh 30.02 in1016.6 mb 0.00 in0.0 mm 0.00 in0.0 mm 0.01 in0.3 mm
04:01 PM 74.0°F23.3°C 69.2°F20.7°C 85% 2.1 mph E3.4 kmh E 9.0 mph14.5 kmh 30.01 in1016.3 mb 0.00 in0.0 mm 0.00 in0.0 mm 0.01 in0.3 mm
04:06 PM 74.4°F23.6°C 69.0°F20.6°C 83% 5.4 mph ENE8.7 kmh ENE 9.0 mph14.5 kmh 30.01 in1016.3 mb 0.00 in0.0 mm 0.00 in0.0 mm 0.01 in0.3 mm
04:11 PM 74.5°F23.6°C 69.4°F20.8°C 84% 3.8 mph NE6.1 kmh NE 9.0 mph14.5 kmh 30.01 in1016.3 mb 0.00 in0.0 mm 0.00 in0.0 mm 0.01 in0.3 mm
04:16 PM 74.6°F23.7°C 69.2°F20.7°C 83% 3.9 mph E6.3 kmh E 9.0 mph14.5 kmh 30.01 in1016.3 mb 0.00 in0.0 mm 0.00 in0.0 mm 0.01 in0.3 mm
04:21 PM 74.6°F23.7°C 69.2°F20.7°C 83% 3.5 mph ENE5.6 kmh ENE 9.0 mph14.5 kmh 30.01 in1016.3 mb 0.00 in0.0 mm 0.00 in0.0 mm 0.01 in0.3 mm
04:26 PM 74.5°F23.6°C 69.1°F20.6°C 83% 4.2 mph NE6.8 kmh NE 9.0 mph14.5 kmh 30.01 in1016.3 mb 0.00 in0.0 mm 0.00 in0.0 mm 0.01 in0.3 mm
04:31 PM 74.6°F23.7°C 69.5°F20.8°C 84% 2.9 mph NE4.7 kmh NE 7.0 mph11.3 kmh 30.01 in1016.3 mb 0.00 in0.0 mm 0.00 in0.0 mm 0.01 in0.3 mm
04:36 PM 74.7°F23.7°C 69.5°F20.8°C 84% 3.2 mph E5.1 kmh E 7.0 mph11.3 kmh 30.01 in1016.3 mb 0.00 in0.0 mm 0.00 in0.0 mm 0.01 in0.3 mm
04:41 PM 74.6°F23.7°C 69.5°F20.8°C 84% 1.6 mph ENE2.6 kmh ENE 7.0 mph11.3 kmh 30.01 in1016.3 mb 0.00 in0.0 mm 0.00 in0.0 mm 0.01 in0.3 mm
04:46 PM 74.7°F23.7°C 69.6°F20.9°C 84% 3.1 mph ENE5.0 kmh ENE 7.0 mph11.3 kmh 30.01 in1016.3 mb 0.00 in0.0 mm 0.00 in0.0 mm 0.01 in0.3 mm
04:51 PM 74.6°F23.7°C 69.5°F20.8°C 84% 1.0 mph NE1.6 kmh NE 5.0 mph8.0 kmh 30.01 in1016.3 mb 0.00 in0.0 mm 0.00 in0.0 mm 0.01 in0.3 mm
04:56 PM 74.8°F23.8°C 69.7°F20.9°C 84% 2.1 mph ENE3.4 kmh ENE 5.0 mph8.0 kmh 30.01 in1016.3 mb 0.00 in0.0 mm 0.00 in0.0 mm 0.01 in0.3 mm
05:01 PM 74.8°F23.8°C 69.7°F20.9°C 84% 2.8 mph NE4.5 kmh NE 6.0 mph9.7 kmh 30.01 in1016.3 mb 0.00 in0.0 mm 0.00 in0.0 mm 0.01 in0.3 mm
05:06 PM 74.7°F23.7°C 69.6°F20.9°C 84% 2.8 mph ENE4.5 kmh ENE 6.0 mph9.7 kmh 30.01 in1016.3 mb 0.00 in0.0 mm 0.00 in0.0 mm 0.01 in0.3 mm
05:11 PM 74.7°F23.7°C 69.6°F20.9°C 84% 2.8 mph ENE4.5 kmh ENE 6.0 mph9.7 kmh 30.01 in1016.3 mb 0.00 in0.0 mm 0.00 in0.0 mm 0.01 in0.3 mm
05:16 PM 74.6°F23.7°C 69.5°F20.8°C 84% 1.3 mph NE2.1 kmh NE 6.0 mph9.7 kmh 30.01 in1016.3 mb 0.00 in0.0 mm 0.00 in0.0 mm 0.01 in0.3 mm
05:21 PM 74.6°F23.7°C 69.5°F20.8°C 84% 2.0 mph ENE3.2 kmh ENE 6.0 mph9.7 kmh 30.01 in1016.3 mb 0.00 in0.0 mm 0.00 in0.0 mm 0.01 in0.3 mm
05:26 PM 74.6°F23.7°C 69.8°F21.0°C 85% 1.7 mph ENE2.7 kmh ENE 6.0 mph9.7 kmh 30.01 in1016.3 mb 0.00 in0.0 mm 0.00 in0.0 mm 0.01 in0.3 mm
05:31 PM 74.6°F23.7°C 69.8°F21.0°C 85% 2.1 mph NNE3.4 kmh NNE 6.0 mph9.7 kmh 30.02 in1016.6 mb 0.00 in0.0 mm 0.00 in0.0 mm 0.01 in0.3 mm
05:36 PM 74.6°F23.7°C 70.2°F21.2°C 86% 2.1 mph NE3.4 kmh NE 6.0 mph9.7 kmh 30.02 in1016.6 mb 0.00 in0.0 mm 0.00 in0.0 mm 0.01 in0.3 mm
05:41 PM 74.5°F23.6°C 70.0°F21.1°C 86% 1.6 mph NE2.6 kmh NE 4.0 mph6.4 kmh 30.02 in1016.6 mb 0.00 in0.0 mm 0.00 in0.0 mm 0.01 in0.3 mm
05:46 PM 74.5°F23.6°C 70.0°F21.1°C 86% 1.3 mph NE2.1 kmh NE 4.0 mph6.4 kmh 30.02 in1016.6 mb 0.00 in0.0 mm 0.00 in0.0 mm 0.01 in0.3 mm
05:51 PM 74.4°F23.6°C 70.0°F21.1°C 86% 2.5 mph NE4.0 kmh NE 4.0 mph6.4 kmh 30.02 in1016.6 mb 0.00 in0.0 mm 0.00 in0.0 mm 0.01 in0.3 mm
05:56 PM 74.4°F23.6°C 70.0°F21.1°C 86% 2.0 mph NE3.2 kmh NE 4.0 mph6.4 kmh 30.02 in1016.6 mb 0.00 in0.0 mm 0.00 in0.0 mm 0.01 in0.3 mm
06:01 PM 74.4°F23.6°C 70.0°F21.1°C 86% 2.6 mph ENE4.2 kmh ENE 5.0 mph8.0 kmh 30.01 in1016.3 mb 0.00 in0.0 mm 0.00 in0.0 mm 0.01 in0.3 mm
06:06 PM 74.3°F23.5°C 69.9°F21.1°C 86% 1.8 mph E2.9 kmh E 5.0 mph8.0 kmh 30.01 in1016.3 mb 0.00 in0.0 mm 0.00 in0.0 mm 0.01 in0.3 mm
06:11 PM 74.3°F23.5°C 70.2°F21.2°C 87% 1.5 mph ENE2.4 kmh ENE 5.0 mph8.0 kmh 30.01 in1016.3 mb 0.00 in0.0 mm 0.00 in0.0 mm 0.01 in0.3 mm
06:16 PM 74.2°F23.4°C 70.1°F21.2°C 87% 2.0 mph ENE3.2 kmh ENE 5.0 mph8.0 kmh 30.01 in1016.3 mb 0.00 in0.0 mm 0.00 in0.0 mm 0.01 in0.3 mm
06:21 PM 74.2°F23.4°C 70.1°F21.2°C 87% 2.1 mph ENE3.4 kmh ENE 4.0 mph6.4 kmh 30.01 in1016.3 mb 0.00 in0.0 mm 0.00 in0.0 mm 0.01 in0.3 mm
06:26 PM 74.1°F23.4°C 70.0°F21.1°C 87% 1.7 mph E2.7 kmh E 4.0 mph6.4 kmh 30.01 in1016.3 mb 0.00 in0.0 mm 0.00 in0.0 mm 0.01 in0.3 mm
06:31 PM 74.1°F23.4°C 70.3°F21.3°C 88% 1.0 mph E1.6 kmh E 4.0 mph6.4 kmh 30.01 in1016.3 mb 0.00 in0.0 mm 0.00 in0.0 mm 0.01 in0.3 mm
06:36 PM 74.1°F23.4°C 70.3°F21.3°C 88% 1.9 mph ENE3.1 kmh ENE 4.0 mph6.4 kmh 30.01 in1016.3 mb 0.00 in0.0 mm 0.00 in0.0 mm 0.01 in0.3 mm
06:41 PM 74.1°F23.4°C 70.3°F21.3°C 88% 1.0 mph E1.6 kmh E 4.0 mph6.4 kmh 30.01 in1016.3 mb 0.00 in0.0 mm 0.00 in0.0 mm 0.01 in0.3 mm
06:46 PM 74.0°F23.3°C 70.2°F21.2°C 88% 1.8 mph E2.9 kmh E 4.0 mph6.4 kmh 30.02 in1016.6 mb 0.00 in0.0 mm 0.00 in0.0 mm 0.01 in0.3 mm
06:51 PM 74.1°F23.4°C 70.3°F21.3°C 88% 2.1 mph E3.4 kmh E 4.0 mph6.4 kmh 30.02 in1016.6 mb 0.00 in0.0 mm 0.00 in0.0 mm 0.01 in0.3 mm
06:56 PM 74.1°F23.4°C 70.3°F21.3°C 88% 1.8 mph E2.9 kmh E 4.0 mph6.4 kmh 30.02 in1016.6 mb 0.00 in0.0 mm 0.00 in0.0 mm 0.01 in0.3 mm
07:01 PM 74.0°F23.3°C 70.2°F21.2°C 88% 2.4 mph E3.9 kmh E 5.0 mph8.0 kmh 30.02 in1016.6 mb 0.00 in0.0 mm 0.00 in0.0 mm 0.01 in0.3 mm
07:06 PM 74.0°F23.3°C 69.9°F21.1°C 87% 4.5 mph E7.2 kmh E 7.0 mph11.3 kmh 30.02 in1016.6 mb 0.00 in0.0 mm 0.00 in0.0 mm 0.01 in0.3 mm
07:11 PM 74.1°F23.4°C 70.0°F21.1°C 87% 2.6 mph E4.2 kmh E 7.0 mph11.3 kmh 30.02 in1016.6 mb 0.00 in0.0 mm 0.00 in0.0 mm 0.01 in0.3 mm
07:16 PM 74.0°F23.3°C 69.9°F21.1°C 87% 2.8 mph E4.5 kmh E 7.0 mph11.3 kmh 30.02 in1016.6 mb 0.00 in0.0 mm 0.00 in0.0 mm 0.01 in0.3 mm
07:21 PM 74.0°F23.3°C 69.6°F20.9°C 86% 2.4 mph E3.9 kmh E 7.0 mph11.3 kmh 30.02 in1016.6 mb 0.00 in0.0 mm 0.00 in0.0 mm 0.01 in0.3 mm
07:26 PM 74.0°F23.3°C 69.6°F20.9°C 86% 2.3 mph E3.7 kmh E 6.0 mph9.7 kmh 30.02 in1016.6 mb 0.00 in0.0 mm 0.00 in0.0 mm 0.01 in0.3 mm
07:31 PM 74.0°F23.3°C 69.5°F20.8°C 86% 2.1 mph E3.4 kmh E 6.0 mph9.7 kmh 30.02 in1016.6 mb 0.00 in0.0 mm 0.00 in0.0 mm 0.01 in0.3 mm
07:36 PM 73.9°F23.3°C 69.8°F21.0°C 87% 1.5 mph E2.4 kmh E 6.0 mph9.7 kmh 30.02 in1016.6 mb 0.00 in0.0 mm 0.00 in0.0 mm 0.01 in0.3 mm
07:41 PM 73.9°F23.3°C 69.8°F21.0°C 87% 1.6 mph E2.6 kmh E 6.0 mph9.7 kmh 30.02 in1016.6 mb 0.00 in0.0 mm 0.00 in0.0 mm 0.01 in0.3 mm
07:46 PM 73.8°F23.2°C 69.7°F20.9°C 87% 1.0 mph SE1.6 kmh SE 6.0 mph9.7 kmh 30.03 in1016.9 mb 0.00 in0.0 mm 0.00 in0.0 mm 0.01 in0.3 mm
07:51 PM 73.7°F23.2°C 69.6°F20.9°C 87% 1.4 mph E2.3 kmh E 7.0 mph11.3 kmh 30.03 in1016.9 mb 0.00 in0.0 mm 0.00 in0.0 mm 0.01 in0.3 mm
07:56 PM 73.7°F23.2°C 69.6°F20.9°C 87% 2.8 mph E4.5 kmh E 7.0 mph11.3 kmh 30.03 in1016.9 mb 0.00 in0.0 mm 0.00 in0.0 mm 0.01 in0.3 mm
08:01 PM 73.7°F23.2°C 69.6°F20.9°C 87% 1.9 mph E3.1 kmh E 7.0 mph11.3 kmh 30.04 in1017.3 mb 0.00 in0.0 mm 0.00 in0.0 mm 0.01 in0.3 mm
08:06 PM 73.7°F23.2°C 69.6°F20.9°C 87% 1.9 mph E3.1 kmh E 7.0 mph11.3 kmh 30.04 in1017.3 mb 0.00 in0.0 mm 0.00 in0.0 mm 0.01 in0.3 mm
08:11 PM 73.6°F23.1°C 69.5°F20.8°C 87% 3.4 mph E5.5 kmh E 6.0 mph9.7 kmh 30.04 in1017.3 mb 0.00 in0.0 mm 0.00 in0.0 mm 0.01 in0.3 mm
08:16 PM 73.5°F23.1°C 69.4°F20.8°C 87% 2.1 mph E3.4 kmh E 6.0 mph9.7 kmh 30.04 in1017.3 mb 0.00 in0.0 mm 0.00 in0.0 mm 0.01 in0.3 mm
08:21 PM 73.5°F23.1°C 69.4°F20.8°C 87% 2.5 mph E4.0 kmh E 6.0 mph9.7 kmh 30.04 in1017.3 mb 0.00 in0.0 mm 0.00 in0.0 mm 0.01 in0.3 mm
08:26 PM 73.4°F23.0°C 69.6°F20.9°C 88% 1.0 mph E1.6 kmh E 6.0 mph9.7 kmh 30.04 in1017.3 mb 0.00 in0.0 mm 0.00 in0.0 mm 0.01 in0.3 mm
08:31 PM 73.3°F22.9°C 69.5°F20.8°C 88% 1.2 mph E1.9 kmh E 4.0 mph6.4 kmh 30.04 in1017.3 mb 0.00 in0.0 mm 0.00 in0.0 mm 0.01 in0.3 mm
08:36 PM 73.3°F22.9°C 69.5°F20.8°C 88% 2.2 mph E3.5 kmh E 4.0 mph6.4 kmh 30.04 in1017.3 mb 0.00 in0.0 mm 0.00 in0.0 mm 0.01 in0.3 mm
08:41 PM 73.3°F22.9°C 69.5°F20.8°C 88% 2.3 mph E3.7 kmh E 6.0 mph9.7 kmh 30.04 in1017.3 mb 0.00 in0.0 mm 0.00 in0.0 mm 0.01 in0.3 mm
08:45 PM 73.2°F22.9°C 69.4°F20.8°C 88% 3.0 mph E4.8 kmh E 6.0 mph9.7 kmh 30.04 in1017.3 mb 0.00 in0.0 mm 0.00 in0.0 mm 0.01 in0.3 mm
08:50 PM 73.1°F22.8°C 69.3°F20.7°C 88% 2.4 mph E3.9 kmh E 7.0 mph11.3 kmh 30.04 in1017.3 mb 0.00 in0.0 mm 0.00 in0.0 mm 0.01 in0.3 mm
08:55 PM 73.1°F22.8°C 69.3°F20.7°C 88% 2.7 mph ENE4.3 kmh ENE 7.0 mph11.3 kmh 30.04 in1017.3 mb 0.00 in0.0 mm 0.00 in0.0 mm 0.01 in0.3 mm
09:00 PM 73.0°F22.8°C 69.2°F20.7°C 88% 2.4 mph E3.9 kmh E 7.0 mph11.3 kmh 30.05 in1017.6 mb 0.00 in0.0 mm 0.00 in0.0 mm 0.01 in0.3 mm
09:05 PM 73.0°F22.8°C 69.2°F20.7°C 88% 2.4 mph E3.9 kmh E 7.0 mph11.3 kmh 30.04 in1017.3 mb 0.00 in0.0 mm 0.00 in0.0 mm 0.01 in0.3 mm
09:10 PM 72.9°F22.7°C 69.1°F20.6°C 88% 2.9 mph E4.7 kmh E 6.0 mph9.7 kmh 30.04 in1017.3 mb 0.00 in0.0 mm 0.00 in0.0 mm 0.01 in0.3 mm
09:15 PM 72.9°F22.7°C 69.1°F20.6°C 88% 2.2 mph ENE3.5 kmh ENE 6.0 mph9.7 kmh 30.05 in1017.6 mb 0.00 in0.0 mm 0.00 in0.0 mm 0.01 in0.3 mm
09:20 PM 72.9°F22.7°C 69.1°F20.6°C 88% 1.6 mph ESE2.6 kmh ESE 6.0 mph9.7 kmh 30.05 in1017.6 mb 0.00 in0.0 mm 0.00 in0.0 mm 0.01 in0.3 mm
09:25 PM 72.9°F22.7°C 69.1°F20.6°C 88% 2.7 mph E4.3 kmh E 6.0 mph9.7 kmh 30.05 in1017.6 mb 0.00 in0.0 mm 0.00 in0.0 mm 0.01 in0.3 mm
09:30 PM 72.9°F22.7°C 69.1°F20.6°C 88% 3.1 mph E5.0 kmh E 8.0 mph12.9 kmh 30.05 in1017.6 mb 0.00 in0.0 mm 0.00 in0.0 mm 0.01 in0.3 mm
09:35 PM 72.9°F22.7°C 69.1°F20.6°C 88% 1.9 mph ENE3.1 kmh ENE 8.0 mph12.9 kmh 30.05 in1017.6 mb 0.00 in0.0 mm 0.00 in0.0 mm 0.01 in0.3 mm
09:40 PM 72.9°F22.7°C 69.1°F20.6°C 88% 1.3 mph ENE2.1 kmh ENE 8.0 mph12.9 kmh 30.05 in1017.6 mb 0.00 in0.0 mm 0.00 in0.0 mm 0.01 in0.3 mm
09:45 PM 72.8°F22.7°C 69.0°F20.6°C 88% 1.2 mph ENE1.9 kmh ENE 8.0 mph12.9 kmh 30.06 in1017.9 mb 0.00 in0.0 mm 0.00 in0.0 mm 0.01 in0.3 mm
09:50 PM 72.7°F22.6°C 69.3°F20.7°C 89% 2.2 mph ENE3.5 kmh ENE 5.0 mph8.0 kmh 30.06 in1017.9 mb 0.00 in0.0 mm 0.00 in0.0 mm 0.01 in0.3 mm
09:55 PM 72.7°F22.6°C 69.3°F20.7°C 89% 2.3 mph NE3.7 kmh NE 4.0 mph6.4 kmh 30.06 in1017.9 mb 0.00 in0.0 mm 0.00 in0.0 mm 0.01 in0.3 mm
10:00 PM 72.7°F22.6°C 69.3°F20.7°C 89% 1.5 mph NE2.4 kmh NE 4.0 mph6.4 kmh 30.06 in1017.9 mb 0.00 in0.0 mm 0.00 in0.0 mm 0.01 in0.3 mm
10:05 PM 72.7°F22.6°C 69.3°F20.7°C 89% 2.1 mph E3.4 kmh E 5.0 mph8.0 kmh 30.07 in1018.3 mb 0.00 in0.0 mm 0.00 in0.0 mm 0.01 in0.3 mm
10:10 PM 72.8°F22.7°C 69.4°F20.8°C 89% 2.1 mph ENE3.4 kmh ENE 5.0 mph8.0 kmh 30.07 in1018.3 mb 0.00 in0.0 mm 0.00 in0.0 mm 0.01 in0.3 mm
10:15 PM 72.7°F22.6°C 69.3°F20.7°C 89% 3.0 mph ENE4.8 kmh ENE 6.0 mph9.7 kmh 30.06 in1017.9 mb 0.00 in0.0 mm 0.00 in0.0 mm 0.01 in0.3 mm
10:20 PM 72.7°F22.6°C 69.3°F20.7°C 89% 3.0 mph NE4.8 kmh NE 11.0 mph17.7 kmh 30.06 in1017.9 mb 0.00 in0.0 mm 0.00 in0.0 mm 0.01 in0.3 mm
10:25 PM 72.7°F22.6°C 69.3°F20.7°C 89% 1.4 mph ENE2.3 kmh ENE 11.0 mph17.7 kmh 30.06 in1017.9 mb 0.00 in0.0 mm 0.00 in0.0 mm 0.01 in0.3 mm
10:30 PM 72.6°F22.6°C 69.2°F20.7°C 89% 1.7 mph ENE2.7 kmh ENE 11.0 mph17.7 kmh 30.06 in1017.9 mb 0.00 in0.0 mm 0.00 in0.0 mm 0.01 in0.3 mm
10:35 PM 72.5°F22.5°C 69.4°F20.8°C 90% 2.9 mph NE4.7 kmh NE 11.0 mph17.7 kmh 30.06 in1017.9 mb 0.00 in0.0 mm 0.00 in0.0 mm 0.01 in0.3 mm
10:40 PM 72.5°F22.5°C 69.4°F20.8°C 90% 2.9 mph ENE4.7 kmh ENE 7.0 mph11.3 kmh 30.06 in1017.9 mb 0.00 in0.0 mm 0.00 in0.0 mm 0.01 in0.3 mm
10:45 PM 72.4°F22.4°C 69.3°F20.7°C 90% 2.1 mph NE3.4 kmh NE 7.0 mph11.3 kmh 30.06 in1017.9 mb 0.00 in0.0 mm 0.00 in0.0 mm 0.01 in0.3 mm
10:50 PM 72.4°F22.4°C 69.3°F20.7°C 90% 2.5 mph ENE4.0 kmh ENE 7.0 mph11.3 kmh 30.06 in1017.9 mb 0.00 in0.0 mm 0.00 in0.0 mm 0.01 in0.3 mm
10:55 PM 72.3°F22.4°C 69.2°F20.7°C 90% 2.5 mph E4.0 kmh E 8.0 mph12.9 kmh 30.06 in1017.9 mb 0.00 in0.0 mm 0.00 in0.0 mm 0.01 in0.3 mm
11:00 PM 72.3°F22.4°C 69.2°F20.7°C 90% 3.3 mph NE5.3 kmh NE 8.0 mph12.9 kmh 30.06 in1017.9 mb 0.00 in0.0 mm 0.00 in0.0 mm 0.01 in0.3 mm
11:05 PM 72.2°F22.3°C 69.1°F20.6°C 90% 3.2 mph NE5.1 kmh NE 8.0 mph12.9 kmh 30.06 in1017.9 mb 0.00 in0.0 mm 0.00 in0.0 mm 0.01 in0.3 mm
11:10 PM 72.2°F22.3°C 69.1°F20.6°C 90% 2.8 mph ENE4.5 kmh ENE 8.0 mph12.9 kmh 30.06 in1017.9 mb 0.00 in0.0 mm 0.00 in0.0 mm 0.01 in0.3 mm
11:15 PM 72.1°F22.3°C 69.0°F20.6°C 90% 2.8 mph ENE4.5 kmh ENE 7.0 mph11.3 kmh 30.05 in1017.6 mb 0.00 in0.0 mm 0.00 in0.0 mm 0.01 in0.3 mm
11:20 PM 72.1°F22.3°C 69.0°F20.6°C 90% 1.3 mph E2.1 kmh E 7.0 mph11.3 kmh 30.05 in1017.6 mb 0.00 in0.0 mm 0.00 in0.0 mm 0.01 in0.3 mm
11:25 PM 72.1°F22.3°C 69.0°F20.6°C 90% 4.4 mph E7.1 kmh E 9.0 mph14.5 kmh 30.06 in1017.9 mb 0.00 in0.0 mm 0.00 in0.0 mm 0.01 in0.3 mm
11:30 PM 72.1°F22.3°C 68.7°F20.4°C 89% 2.4 mph NE3.9 kmh NE 9.0 mph14.5 kmh 30.06 in1017.9 mb 0.00 in0.0 mm 0.00 in0.0 mm 0.01 in0.3 mm
11:35 PM 72.1°F22.3°C 68.7°F20.4°C 89% 3.2 mph ENE5.1 kmh ENE 9.0 mph14.5 kmh 30.05 in1017.6 mb 0.00 in0.0 mm 0.00 in0.0 mm 0.01 in0.3 mm
11:40 PM 72.2°F22.3°C 68.8°F20.4°C 89% 2.0 mph NE3.2 kmh NE 12.0 mph19.3 kmh 30.05 in1017.6 mb 0.00 in0.0 mm 0.00 in0.0 mm 0.01 in0.3 mm
11:45 PM 72.2°F22.3°C 68.4°F20.2°C 88% 2.6 mph E4.2 kmh E 12.0 mph19.3 kmh 30.05 in1017.6 mb 0.00 in0.0 mm 0.00 in0.0 mm 0.01 in0.3 mm
11:50 PM 72.2°F22.3°C 68.4°F20.2°C 88% 1.9 mph E3.1 kmh E 12.0 mph19.3 kmh 30.05 in1017.6 mb 0.00 in0.0 mm 0.00 in0.0 mm 0.01 in0.3 mm
11:55 PM 72.2°F22.3°C 68.4°F20.2°C 88% 3.9 mph E6.3 kmh E 10.0 mph16.1 kmh 30.05 in1017.6 mb 0.00 in0.0 mm 0.00 in0.0 mm 0.01 in0.3 mm